Aérodrome :
LOGIN :

S'inscrire | Disclaimer

   EN    FR    IT 

 










Légende :    VFR   VFR Marginal   IFR   IFR Intensif   IFR Très Intensif
Visi : 
Plafond : 
>= 8 km
>= 3000ft
5 à 8 km
1000 à 3000 ft
1500m à 5 km
500 à 1000 ft
800 à 1500m
200 à 500 ft
< 800m
< 200 ft
Symboles :   Orages  Brouillard  Fortes neiges  Fortes précipitations  Vent > 20 kt
SIGMETs :   Divers  Orages  Givrage  Turbulence  Onde Orograph.  Cendres Volcan.







- Altitude de l'aérodrome : 427 ft
- Code IATA : CIA


LIRA - Roma Ciampino

DERNIER METAR :
  • 280650Z 31004KT 9999 BKN065 26/19 Q1009

METARs EXPIRÉS :
  • 280620Z 35003KT 300V040 9999 SCT060 25/19 Q1009
  • 280550Z 01003KT 340V040 9999 SCT065 25/20 Q1008
  • 280520Z 31004KT 270V360 9999 SCT030 BKN070 24/20 Q1008
  • 280450Z 01003KT 310V050 CAVOK 23/19 Q1008

TAF TAF LIRA
Valide du 28 à 06h jusqu'au 29 à 06h UTC


280500Z 2806/2906 15008KT 9999 FEW030
BECMG 2807/2809 22018G28KT
TEMPO 2810/2814 RA
BECMG 2818/2820 21008KT
Pas de NOTAMs connus pour ce terrain.



MET'MAP, la Météo Aéronautique d'un coup d'oeil ! - Copyright ORBIFLY Décembre 2007 - Disclaimer

ORBIFLY MET'MAP TEAM :

Programmation & Développement : Alexandra Zaïnal
Conception & Développement : Baudouin d'Aumeries
Co-Programmation & Développement : Marc-Olivier Méhu
Soutien technique & logistique : Manuel Goepfert

Contact : metmap@orbifly.com




SOURCES & CREDITS :

   NOAA